createdAt,value
2019-01-13T00:00:17.079Z,35.32
2019-01-13T00:01:26.283Z,35.22
2019-01-13T00:02:35.705Z,35.22
2019-01-13T00:03:44.662Z,35.13
2019-01-13T00:04:53.580Z,35.11
2019-01-13T00:06:03.010Z,35.3
2019-01-13T00:07:12.434Z,35.4
2019-01-13T00:08:21.882Z,35.21
2019-01-13T00:09:31.583Z,35.21
2019-01-13T00:10:41.252Z,35.3
2019-01-13T00:11:50.446Z,35.59
2019-01-13T00:12:59.395Z,35.59
2019-01-13T00:14:08.567Z,35.4
2019-01-13T00:15:17.512Z,35.4
2019-01-13T00:16:26.460Z,35.4
2019-01-13T00:17:35.910Z,35.4
2019-01-13T00:18:45.096Z,35.5
2019-01-13T00:19:54.282Z,35.4
2019-01-13T00:21:03.727Z,35.58
2019-01-13T00:22:12.715Z,35.5
2019-01-13T00:23:22.161Z,35.5
2019-01-13T00:24:31.146Z,35.59
2019-01-13T00:25:40.606Z,35.5
2019-01-13T00:26:50.042Z,35.59
2019-01-13T00:27:59.943Z,35.38
2019-01-13T00:29:10.545Z,35.59
2019-01-13T00:30:21.999Z,35.5
2019-01-13T00:31:31.444Z,35.58
2019-01-13T00:32:40.905Z,35.38
2019-01-13T00:33:50.128Z,35.48
2019-01-13T00:34:59.308Z,35.5
2019-01-13T00:36:08.984Z,35.38
2019-01-13T00:37:17.678Z,35.48
2019-01-13T00:38:27.124Z,35.48
2019-01-13T00:39:36.584Z,35.38
2019-01-13T00:40:45.553Z,35.38
2019-01-13T00:41:55.259Z,35.38
2019-01-13T00:43:04.727Z,35.38
2019-01-13T00:44:13.661Z,35.38
2019-01-13T00:45:23.359Z,35.38
2019-01-13T00:46:32.277Z,35.38
2019-01-13T00:47:41.211Z,35.48
2019-01-13T00:48:50.637Z,35.38
2019-01-13T00:50:00.345Z,35.48
2019-01-13T00:51:09.773Z,35.48
2019-01-13T00:52:19.256Z,35.28
2019-01-13T00:53:28.203Z,35.28
2019-01-13T00:54:37.399Z,35.38
2019-01-13T00:55:46.573Z,35.38
2019-01-13T00:56:55.522Z,35.58
2019-01-13T00:58:04.968Z,35.38
2019-01-13T00:59:13.930Z,35.48
2019-01-13T01:00:29.182Z,35.28
2019-01-13T01:01:39.122Z,35.38
2019-01-13T01:02:49.073Z,35.38
2019-01-13T01:03:58.244Z,35.38
2019-01-13T01:05:07.715Z,35.58
2019-01-13T01:06:16.912Z,35.28
2019-01-13T01:07:26.376Z,35.28
2019-01-13T01:08:35.298Z,35.48
2019-01-13T01:09:44.965Z,35.38
2019-01-13T01:10:54.396Z,35.38
2019-01-13T01:12:03.346Z,35.38
2019-01-13T01:13:12.791Z,35.46
2019-01-13T01:14:22.498Z,35.38
2019-01-13T01:15:31.751Z,35.48
2019-01-13T01:16:41.209Z,35.48
2019-01-13T01:17:50.433Z,35.48
2019-01-13T01:18:59.115Z,35.38
2019-01-13T01:20:08.313Z,35.38
2019-01-13T01:21:17.505Z,35.48
2019-01-13T01:22:27.017Z,35.38
2019-01-13T01:23:36.188Z,35.46
2019-01-13T01:24:45.365Z,35.36
2019-01-13T01:25:54.816Z,35.36
2019-01-13T01:27:04.242Z,35.46
2019-01-13T01:28:13.163Z,35.56
2019-01-13T01:29:22.870Z,35.56
2019-01-13T01:30:35.855Z,35.46
2019-01-13T01:31:44.778Z,35.46
2019-01-13T01:32:53.689Z,35.36
2019-01-13T01:34:02.881Z,35.36
2019-01-13T01:35:12.306Z,35.36
2019-01-13T01:36:21.550Z,35.46
2019-01-13T01:37:30.978Z,35.46
2019-01-13T01:38:40.404Z,35.46
2019-01-13T01:39:49.341Z,35.46
2019-01-13T01:40:58.535Z,35.46
2019-01-13T01:42:07.475Z,35.56
2019-01-13T01:43:17.173Z,35.27
2019-01-13T01:44:26.384Z,35.46
2019-01-13T01:45:35.574Z,35.27
2019-01-13T01:46:45.021Z,35.27
2019-01-13T01:47:54.455Z,35.56
2019-01-13T01:49:04.418Z,35.36
2019-01-13T01:50:13.869Z,35.36
2019-01-13T01:51:22.811Z,35.46
2019-01-13T01:52:32.255Z,35.46
2019-01-13T01:53:41.949Z,35.36
2019-01-13T01:54:51.141Z,35.46
2019-01-13T01:56:00.315Z,35.36
2019-01-13T01:57:09.739Z,35.36
2019-01-13T01:58:19.433Z,35.36
2019-01-13T01:59:28.649Z,35.36
2019-01-13T02:00:43.076Z,35.36
2019-01-13T02:01:52.257Z,35.46
2019-01-13T02:03:01.696Z,35.46
2019-01-13T02:04:11.377Z,35.46
2019-01-13T02:05:21.225Z,35.46
2019-01-13T02:06:31.262Z,35.46
2019-01-13T02:07:40.475Z,35.46
2019-01-13T02:08:49.794Z,35.27
2019-01-13T02:09:59.498Z,35.27
2019-01-13T02:11:08.433Z,35.46
2019-01-13T02:12:18.112Z,35.36
2019-01-13T02:13:27.059Z,35.36
2019-01-13T02:14:36.497Z,35.27
2019-01-13T02:15:45.659Z,35.27
2019-01-13T02:16:54.859Z,35.56
2019-01-13T02:18:04.037Z,35.46
2019-01-13T02:19:13.470Z,35.46
2019-01-13T02:20:22.898Z,35.46
2019-01-13T02:21:32.082Z,35.46
2019-01-13T02:22:42.003Z,35.27
2019-01-13T02:23:50.939Z,35.46
2019-01-13T02:25:00.609Z,35.46
2019-01-13T02:26:10.060Z,35.46
2019-01-13T02:27:19.733Z,35.36
2019-01-13T02:28:29.167Z,35.36
2019-01-13T02:29:38.625Z,35.56
2019-01-13T02:30:51.873Z,35.36
2019-01-13T02:32:01.054Z,35.46
2019-01-13T02:33:10.747Z,35.46
2019-01-13T02:34:19.919Z,35.36
2019-01-13T02:35:29.375Z,35.46
2019-01-13T02:36:38.565Z,35.36
2019-01-13T02:37:47.772Z,35.46
2019-01-13T02:38:57.208Z,35.46
2019-01-13T02:40:06.651Z,35.46
2019-01-13T02:41:16.323Z,35.46
2019-01-13T02:42:25.789Z,35.46
2019-01-13T02:43:35.235Z,35.27
2019-01-13T02:44:44.166Z,35.27
2019-01-13T02:45:53.127Z,35.25
2019-01-13T02:47:02.574Z,35.44
2019-01-13T02:48:12.514Z,35.44
2019-01-13T02:49:21.946Z,35.46
2019-01-13T02:50:31.664Z,35.36
2019-01-13T02:51:40.863Z,35.44
2019-01-13T02:52:50.101Z,35.35
2019-01-13T02:53:59.563Z,35.36
2019-01-13T02:55:09.005Z,35.35
2019-01-13T02:56:18.691Z,35.25
2019-01-13T02:57:28.137Z,35.35
2019-01-13T02:58:37.823Z,35.35
2019-01-13T02:59:47.254Z,35.35
2019-01-13T03:00:59.758Z,35.35
2019-01-13T03:02:09.211Z,35.35
2019-01-13T03:03:19.707Z,35.35
2019-01-13T03:04:28.913Z,35.44
2019-01-13T03:05:38.137Z,35.35
2019-01-13T03:06:47.814Z,35.35
2019-01-13T03:07:57.748Z,35.35
2019-01-13T03:09:07.177Z,35.35
2019-01-13T03:10:16.620Z,35.44
2019-01-13T03:11:26.091Z,35.35
2019-01-13T03:12:35.606Z,35.44
2019-01-13T03:13:45.045Z,35.35
2019-01-13T03:14:54.258Z,35.44
2019-01-13T03:16:03.706Z,35.35
2019-01-13T03:17:13.131Z,35.44
2019-01-13T03:18:23.148Z,35.44
2019-01-13T03:19:33.114Z,35.25
2019-01-13T03:20:42.587Z,35.35
2019-01-13T03:21:52.558Z,35.44
2019-01-13T03:23:02.249Z,35.44
2019-01-13T03:24:11.687Z,35.35
2019-01-13T03:25:21.154Z,35.25
2019-01-13T03:26:30.599Z,35.35
2019-01-13T03:27:40.293Z,35.54
2019-01-13T03:28:49.803Z,35.44
2019-01-13T03:29:59.002Z,35.54
2019-01-13T03:31:14.900Z,35.54
2019-01-13T03:32:24.382Z,35.44
2019-01-13T03:33:33.892Z,35.44
2019-01-13T03:34:43.325Z,35.54
2019-01-13T03:35:53.061Z,35.54
2019-01-13T03:37:02.745Z,35.54
2019-01-13T03:38:12.703Z,35.54
2019-01-13T03:39:22.396Z,35.64
2019-01-13T03:40:31.881Z,35.64
2019-01-13T03:41:40.824Z,35.54
2019-01-13T03:42:50.034Z,35.64
2019-01-13T03:43:59.272Z,35.54
2019-01-13T03:45:08.250Z,35.44
2019-01-13T03:46:17.677Z,35.64
2019-01-13T03:47:27.152Z,35.64
2019-01-13T03:48:36.624Z,35.73
2019-01-13T03:49:45.581Z,35.64
2019-01-13T03:50:54.789Z,35.54
2019-01-13T03:52:04.279Z,35.73
2019-01-13T03:53:13.477Z,35.44
2019-01-13T03:54:22.936Z,35.44
2019-01-13T03:55:32.615Z,35.73
2019-01-13T03:56:41.793Z,35.54
2019-01-13T03:57:51.215Z,35.44
2019-01-13T03:59:01.183Z,35.54
2019-01-13T04:00:10.118Z,35.64
2019-01-13T04:01:21.137Z,35.64
2019-01-13T04:02:30.843Z,35.44
2019-01-13T04:03:39.540Z,35.64
2019-01-13T04:04:48.969Z,35.73
2019-01-13T04:05:58.410Z,35.54
2019-01-13T04:07:08.350Z,35.73
2019-01-13T04:08:17.546Z,35.54
2019-01-13T04:09:27.207Z,35.54
2019-01-13T04:10:36.645Z,35.64
2019-01-13T04:11:46.091Z,35.83
2019-01-13T04:12:55.023Z,35.83
2019-01-13T04:14:04.198Z,35.73
2019-01-13T04:15:13.424Z,35.73
2019-01-13T04:16:22.372Z,35.71
2019-01-13T04:17:31.814Z,35.73
2019-01-13T04:18:41.255Z,35.73
2019-01-13T04:19:50.689Z,35.73
2019-01-13T04:21:00.378Z,35.83
2019-01-13T04:22:09.813Z,35.73
2019-01-13T04:23:18.763Z,35.73
2019-01-13T04:24:27.961Z,35.73
2019-01-13T04:25:37.414Z,35.83
2019-01-13T04:26:46.594Z,35.73
2019-01-13T04:27:56.284Z,35.73
2019-01-13T04:29:05.481Z,35.73
2019-01-13T04:30:14.687Z,35.64
2019-01-13T04:31:29.299Z,35.64
2019-01-13T04:32:38.265Z,35.73
2019-01-13T04:33:47.460Z,35.91
2019-01-13T04:34:57.145Z,36
2019-01-13T04:36:06.826Z,35.81
2019-01-13T04:37:16.017Z,35.91
2019-01-13T04:38:24.803Z,35.91
2019-01-13T04:39:33.740Z,35.81
2019-01-13T04:40:42.907Z,35.62
2019-01-13T04:41:52.137Z,35.81
2019-01-13T04:43:02.127Z,35.81
2019-01-13T04:44:11.326Z,35.71
2019-01-13T04:45:21.281Z,35.91
2019-01-13T04:46:30.736Z,35.91
2019-01-13T04:47:41.494Z,35.71
2019-01-13T04:48:50.425Z,36
2019-01-13T04:50:00.351Z,35.91
2019-01-13T04:51:09.285Z,36
2019-01-13T04:52:18.989Z,36
2019-01-13T04:53:28.446Z,35.91
2019-01-13T04:54:37.668Z,35.71
2019-01-13T04:55:47.329Z,35.81
2019-01-13T04:56:56.783Z,35.71
2019-01-13T04:58:05.462Z,35.81
2019-01-13T04:59:14.914Z,35.62
2019-01-13T05:00:23.597Z,35.91
2019-01-13T05:01:37.998Z,35.91
2019-01-13T05:02:47.449Z,35.71
2019-01-13T05:03:56.630Z,35.81
2019-01-13T05:05:06.053Z,35.91
2019-01-13T05:06:15.293Z,35.71
2019-01-13T05:07:24.494Z,35.91
2019-01-13T05:08:33.938Z,35.71
2019-01-13T05:09:43.396Z,35.71
2019-01-13T05:10:52.599Z,35.81
2019-01-13T05:12:01.777Z,35.81
2019-01-13T05:13:10.954Z,35.91
2019-01-13T05:14:20.659Z,35.81
2019-01-13T05:15:29.336Z,35.81
2019-01-13T05:16:38.102Z,35.81
2019-01-13T05:17:47.550Z,36
2019-01-13T05:18:56.497Z,36
2019-01-13T05:20:05.449Z,36.19
2019-01-13T05:21:15.347Z,36.1
2019-01-13T05:22:24.545Z,36.19
2019-01-13T05:23:33.722Z,36.1
2019-01-13T05:24:42.925Z,36.1
2019-01-13T05:25:52.098Z,36
2019-01-13T05:27:01.286Z,36.1
2019-01-13T05:28:10.744Z,36.19
2019-01-13T05:29:19.704Z,36.19
2019-01-13T05:30:29.158Z,36.29
2019-01-13T05:31:44.470Z,36.19
2019-01-13T05:32:53.167Z,35.91
2019-01-13T05:34:02.881Z,36.19
2019-01-13T05:35:12.565Z,36.19
2019-01-13T05:36:21.767Z,36.19
2019-01-13T05:37:30.699Z,36.1
2019-01-13T05:38:39.632Z,36.19
2019-01-13T05:39:48.559Z,36.1
2019-01-13T05:40:57.737Z,36.1
2019-01-13T05:42:06.921Z,36.1
2019-01-13T05:43:16.858Z,36.29
2019-01-13T05:44:26.286Z,36.29
2019-01-13T05:45:35.722Z,36.1
2019-01-13T05:46:45.173Z,36.19
2019-01-13T05:47:54.681Z,36.19
2019-01-13T05:49:04.122Z,36.1
2019-01-13T05:50:13.044Z,36.29
2019-01-13T05:51:22.473Z,36.29
2019-01-13T05:52:31.644Z,36.39
2019-01-13T05:53:40.818Z,36.39
2019-01-13T05:54:49.753Z,36.39
2019-01-13T05:55:59.185Z,36.29
2019-01-13T05:57:08.367Z,36.39
2019-01-13T05:58:17.813Z,36.29
2019-01-13T05:59:27.672Z,36.29
2019-01-13T06:00:36.865Z,36.29
2019-01-13T06:01:51.706Z,36.29
2019-01-13T06:03:00.645Z,36.39
2019-01-13T06:04:09.883Z,36.39
2019-01-13T06:05:19.060Z,36.29
2019-01-13T06:06:28.744Z,36.29
2019-01-13T06:07:38.403Z,36.19
2019-01-13T06:08:47.330Z,35.91
2019-01-13T06:09:56.759Z,36
2019-01-13T06:11:05.445Z,36.1
2019-01-13T06:12:14.636Z,36.39
2019-01-13T06:13:23.837Z,36.29
2019-01-13T06:14:32.507Z,36.19
2019-01-13T06:15:42.187Z,36.29
2019-01-13T06:16:53.413Z,36.39
2019-01-13T06:18:02.347Z,36.29
2019-01-13T06:19:11.792Z,36.49
2019-01-13T06:20:20.732Z,36.39
2019-01-13T06:21:30.416Z,36.29
2019-01-13T06:22:40.044Z,36.18
2019-01-13T06:23:49.226Z,36.37
2019-01-13T06:24:58.432Z,36.29
2019-01-13T06:26:08.391Z,36.39
2019-01-13T06:27:18.087Z,36.29
2019-01-13T06:28:27.013Z,36.29
2019-01-13T06:29:36.700Z,36.27
2019-01-13T06:30:45.893Z,36.27
2019-01-13T06:31:58.908Z,36.27
2019-01-13T06:33:08.107Z,36.29
2019-01-13T06:34:17.556Z,36.27
2019-01-13T06:35:26.994Z,36.27
2019-01-13T06:36:36.181Z,36.39
2019-01-13T06:37:45.367Z,36.49
2019-01-13T06:38:54.788Z,36.27
2019-01-13T06:40:03.959Z,36.29
2019-01-13T06:41:13.409Z,36.39
2019-01-13T06:42:22.335Z,36.47
2019-01-13T06:43:31.571Z,36.49
2019-01-13T06:44:41.052Z,36.29
2019-01-13T06:45:50.224Z,36.29
2019-01-13T06:46:59.665Z,36.39
2019-01-13T06:48:09.355Z,36.37
2019-01-13T06:49:18.789Z,36.49
2019-01-13T06:50:28.013Z,36.56
2019-01-13T06:51:37.233Z,36.37
2019-01-13T06:52:46.667Z,36.39
2019-01-13T06:53:55.836Z,36.37
2019-01-13T06:55:05.285Z,36.47
2019-01-13T06:56:14.715Z,36.56
2019-01-13T06:57:24.179Z,36.47
2019-01-13T06:58:33.344Z,36.58
2019-01-13T06:59:42.537Z,36.58
2019-01-13T07:00:51.962Z,36.47
2019-01-13T07:02:05.824Z,36.58
2019-01-13T07:03:15.263Z,36.66
2019-01-13T07:04:24.185Z,36.66
2019-01-13T07:05:33.626Z,36.68
2019-01-13T07:06:42.862Z,36.66
2019-01-13T07:07:51.809Z,36.66
2019-01-13T07:09:01.013Z,36.56
2019-01-13T07:10:10.210Z,36.66
2019-01-13T07:11:18.886Z,36.58
2019-01-13T07:12:28.084Z,36.49
2019-01-13T07:13:37.256Z,36.56
2019-01-13T07:14:46.525Z,36.58
2019-01-13T07:15:57.113Z,36.56
2019-01-13T07:17:06.299Z,36.66
2019-01-13T07:18:15.736Z,36.58
2019-01-13T07:19:24.930Z,36.56
2019-01-13T07:20:34.624Z,36.68
2019-01-13T07:21:43.815Z,36.56
2019-01-13T07:22:53.245Z,36.58
2019-01-13T07:24:02.436Z,36.47
2019-01-13T07:25:11.615Z,36.56
2019-01-13T07:26:21.047Z,36.56
2019-01-13T07:27:30.519Z,36.58
2019-01-13T07:28:39.480Z,36.56
2019-01-13T07:29:48.936Z,36.56
2019-01-13T07:30:58.384Z,36.56
2019-01-13T07:32:13.227Z,36.56
2019-01-13T07:33:22.447Z,36.77
2019-01-13T07:34:31.625Z,36.66
2019-01-13T07:35:41.111Z,36.76
2019-01-13T07:36:50.571Z,36.66
2019-01-13T07:37:59.760Z,36.66
2019-01-13T07:39:08.702Z,36.66
2019-01-13T07:40:18.134Z,36.56
2019-01-13T07:41:27.328Z,36.66
2019-01-13T07:42:36.539Z,36.56
2019-01-13T07:43:46.003Z,36.66
2019-01-13T07:44:55.434Z,36.56
2019-01-13T07:46:04.382Z,36.66
2019-01-13T07:47:13.305Z,36.76
2019-01-13T07:48:22.031Z,36.49
2019-01-13T07:49:31.461Z,36.47
2019-01-13T07:50:41.585Z,36.56
2019-01-13T07:51:51.008Z,36.47
2019-01-13T07:53:00.445Z,36.66
2019-01-13T07:54:09.892Z,36.66
2019-01-13T07:55:19.571Z,36.66
2019-01-13T07:56:28.543Z,36.76
2019-01-13T07:57:38.235Z,36.66
2019-01-13T07:58:47.446Z,36.76
2019-01-13T07:59:56.885Z,36.76
2019-01-13T08:01:06.109Z,36.95
2019-01-13T08:02:20.383Z,36.85
2019-01-13T08:03:29.856Z,36.56
2019-01-13T08:04:40.170Z,36.66
2019-01-13T08:05:49.405Z,36.68
2019-01-13T08:06:58.593Z,36.85
2019-01-13T08:08:07.769Z,36.76
2019-01-13T08:09:16.935Z,36.85
2019-01-13T08:10:26.431Z,36.95
2019-01-13T08:11:35.110Z,36.85
2019-01-13T08:12:44.561Z,36.95
2019-01-13T08:13:53.742Z,36.85
2019-01-13T08:15:03.418Z,36.85
2019-01-13T08:16:12.353Z,36.95
2019-01-13T08:17:21.804Z,36.85
2019-01-13T08:18:31.252Z,37.04
2019-01-13T08:19:40.688Z,36.85
2019-01-13T08:20:50.688Z,36.95
2019-01-13T08:21:59.389Z,36.95
2019-01-13T08:23:09.122Z,36.95
2019-01-13T08:24:18.577Z,37.04
2019-01-13T08:25:27.280Z,37.04
2019-01-13T08:26:36.489Z,36.85
2019-01-13T08:27:45.959Z,37.04
2019-01-13T08:28:55.169Z,36.95
2019-01-13T08:30:04.387Z,36.76
2019-01-13T08:31:13.313Z,36.76
2019-01-13T08:32:27.443Z,36.95
2019-01-13T08:33:37.175Z,36.85
2019-01-13T08:34:46.370Z,36.95
2019-01-13T08:35:55.578Z,36.95
2019-01-13T08:37:05.336Z,37.14
2019-01-13T08:38:15.024Z,36.95
2019-01-13T08:39:23.941Z,36.76
2019-01-13T08:40:34.774Z,36.85
2019-01-13T08:41:44.302Z,36.76
2019-01-13T08:42:53.714Z,37.14
2019-01-13T08:44:03.140Z,36.85
2019-01-13T08:45:12.821Z,37.04
2019-01-13T08:46:21.771Z,36.85
2019-01-13T08:47:31.724Z,36.95
2019-01-13T08:48:41.404Z,37.04
2019-01-13T08:49:50.327Z,37.04
2019-01-13T08:51:00.001Z,37.14
2019-01-13T08:52:09.187Z,37.04
2019-01-13T08:53:18.610Z,37.14
2019-01-13T08:54:28.046Z,37.04
2019-01-13T08:55:37.219Z,36.95
2019-01-13T08:56:46.417Z,37.14
2019-01-13T08:57:55.874Z,36.95
2019-01-13T08:59:05.589Z,36.76
2019-01-13T09:00:14.516Z,36.76
2019-01-13T09:01:23.943Z,36.76
2019-01-13T09:02:34.820Z,37.04
2019-01-13T09:03:44.255Z,36.85
2019-01-13T09:04:54.013Z,36.85
2019-01-13T09:06:03.188Z,37.04
2019-01-13T09:07:12.616Z,36.95
2019-01-13T09:08:21.808Z,37.34
2019-01-13T09:09:32.645Z,36.76
2019-01-13T09:10:42.352Z,36.76
2019-01-13T09:11:51.288Z,36.85
2019-01-13T09:13:00.722Z,36.95
2019-01-13T09:14:10.169Z,37.04
2019-01-13T09:15:19.369Z,36.95
2019-01-13T09:16:28.322Z,37.43
2019-01-13T09:17:37.506Z,37.04
2019-01-13T09:18:47.159Z,37.24
2019-01-13T09:19:56.102Z,37.04
2019-01-13T09:21:06.060Z,37.14
2019-01-13T09:22:15.026Z,37.14
2019-01-13T09:23:24.214Z,36.95
2019-01-13T09:24:33.640Z,37.04
2019-01-13T09:25:42.821Z,37.14
2019-01-13T09:26:53.594Z,37.14
2019-01-13T09:28:03.623Z,37.14
2019-01-13T09:29:13.227Z,37.24
2019-01-13T09:30:22.504Z,37.14
2019-01-13T09:31:31.689Z,37.14
2019-01-13T09:32:42.085Z,37.14
2019-01-13T09:33:51.256Z,37.14
2019-01-13T09:35:00.704Z,37.24
2019-01-13T09:36:09.706Z,37.14
2019-01-13T09:37:18.882Z,37.14
2019-01-13T09:38:28.083Z,37.14
2019-01-13T09:39:37.270Z,37.24
2019-01-13T09:40:46.517Z,37.14
2019-01-13T09:41:55.950Z,37.14
2019-01-13T09:43:05.387Z,37.24
2019-01-13T09:44:15.064Z,37.14
2019-01-13T09:45:24.243Z,37.24
2019-01-13T09:46:33.678Z,37.24
2019-01-13T09:47:42.863Z,37.34
2019-01-13T09:48:52.809Z,37.24
2019-01-13T09:50:02.059Z,37.24
2019-01-13T09:51:11.238Z,37.34
2019-01-13T09:52:20.668Z,37.24
2019-01-13T09:53:30.104Z,37.14
2019-01-13T09:54:39.034Z,37.14
2019-01-13T09:55:48.482Z,37.24
2019-01-13T09:56:57.663Z,37.24
2019-01-13T09:58:06.409Z,37.24
2019-01-13T09:59:16.068Z,37.14
2019-01-13T10:00:25.522Z,37.14
2019-01-13T10:01:34.452Z,37.34
2019-01-13T10:02:49.264Z,37.24
2019-01-13T10:03:58.191Z,37.24
2019-01-13T10:05:07.604Z,37.14
2019-01-13T10:06:17.062Z,37.34
2019-01-13T10:07:26.892Z,37.24
2019-01-13T10:08:36.070Z,37.24
2019-01-13T10:09:45.279Z,37.24
2019-01-13T10:10:54.223Z,37.24
2019-01-13T10:12:03.651Z,37.24
2019-01-13T10:13:12.825Z,37.14
2019-01-13T10:14:22.267Z,37.24
2019-01-13T10:15:31.457Z,37.24
2019-01-13T10:16:40.886Z,37.24
2019-01-13T10:17:50.126Z,37.43
2019-01-13T10:18:59.298Z,37.34
2019-01-13T10:20:08.743Z,37.52
2019-01-13T10:21:18.204Z,37.52
2019-01-13T10:22:27.888Z,37.43
2019-01-13T10:23:37.064Z,37.52
2019-01-13T10:24:46.033Z,37.43
2019-01-13T10:25:55.467Z,37.62
2019-01-13T10:27:05.155Z,37.43
2019-01-13T10:28:14.338Z,37.52
2019-01-13T10:29:24.007Z,37.34
2019-01-13T10:30:33.432Z,37.72
2019-01-13T10:31:42.604Z,37.62
2019-01-13T10:32:57.036Z,37.62
2019-01-13T10:34:05.973Z,37.72
2019-01-13T10:35:14.902Z,37.62
2019-01-13T10:36:24.090Z,37.62
2019-01-13T10:37:33.817Z,37.81
2019-01-13T10:38:42.746Z,37.72
2019-01-13T10:39:52.427Z,37.72
2019-01-13T10:41:01.897Z,37.72
2019-01-13T10:42:11.582Z,37.81
2019-01-13T10:43:20.574Z,37.72
2019-01-13T10:44:30.060Z,37.81
2019-01-13T10:45:39.498Z,37.62
2019-01-13T10:46:48.482Z,37.72
2019-01-13T10:47:58.211Z,37.72
2019-01-13T10:49:07.388Z,37.81
2019-01-13T10:50:16.810Z,37.72
2019-01-13T10:51:26.236Z,37.62
2019-01-13T10:52:35.409Z,37.72
2019-01-13T10:53:45.091Z,37.62
2019-01-13T10:54:54.549Z,37.81
2019-01-13T10:56:03.981Z,37.62
2019-01-13T10:57:13.359Z,37.52
2019-01-13T10:58:22.963Z,37.52
2019-01-13T10:59:31.887Z,37.52
2019-01-13T11:00:41.380Z,37.81
2019-01-13T11:01:50.961Z,37.52
2019-01-13T11:03:04.825Z,37.91
2019-01-13T11:04:14.266Z,37.91
2019-01-13T11:05:23.675Z,37.81
2019-01-13T11:06:33.332Z,37.81
2019-01-13T11:07:42.867Z,37.72
2019-01-13T11:08:52.290Z,37.81
2019-01-13T11:10:01.262Z,37.72
2019-01-13T11:11:10.439Z,37.52
2019-01-13T11:12:19.861Z,37.52
2019-01-13T11:13:29.040Z,37.62
2019-01-13T11:14:38.228Z,37.62
2019-01-13T11:15:47.659Z,37.72
2019-01-13T11:16:56.828Z,37.72
2019-01-13T11:18:06.000Z,37.62
2019-01-13T11:19:14.681Z,37.62
2019-01-13T11:20:23.858Z,37.62
2019-01-13T11:21:32.831Z,37.52
2019-01-13T11:22:41.751Z,37.62
2019-01-13T11:23:50.913Z,37.91
2019-01-13T11:25:00.282Z,37.72
2019-01-13T11:26:09.771Z,37.52
2019-01-13T11:27:18.980Z,37.72
2019-01-13T11:28:28.153Z,37.52
2019-01-13T11:29:37.358Z,37.54
2019-01-13T11:30:47.049Z,37.26
2019-01-13T11:31:56.215Z,37.16
2019-01-13T11:33:11.991Z,37.06
2019-01-13T11:34:21.180Z,36.87
2019-01-13T11:35:30.375Z,36.97
2019-01-13T11:36:39.801Z,36.6
2019-01-13T11:37:48.983Z,36.69
2019-01-13T11:38:57.918Z,36.69
2019-01-13T11:40:07.123Z,36.69
2019-01-13T11:41:16.806Z,36.31
2019-01-13T11:42:26.248Z,36.33
2019-01-13T11:43:35.703Z,36.43
2019-01-13T11:44:44.890Z,36.13
2019-01-13T11:45:54.591Z,35.85
2019-01-13T11:47:03.768Z,36.04
2019-01-13T11:48:13.198Z,36.04
2019-01-13T11:49:22.608Z,35.85
2019-01-13T11:50:31.565Z,35.65
2019-01-13T11:51:40.740Z,35.58
2019-01-13T11:52:49.953Z,35.48
2019-01-13T11:53:59.184Z,35.38
2019-01-13T11:55:08.409Z,35.58
2019-01-13T11:56:17.356Z,35.48
2019-01-13T11:57:26.792Z,35.38
2019-01-13T11:58:36.205Z,35.48
2019-01-13T11:59:45.398Z,35.48
2019-01-13T12:00:55.808Z,35.58
2019-01-13T12:02:05.262Z,35.48
2019-01-13T12:03:19.205Z,35.38
2019-01-13T12:04:27.913Z,35.5
2019-01-13T12:05:37.006Z,35.28
2019-01-13T12:06:46.175Z,35.21
2019-01-13T12:07:55.721Z,35.21
2019-01-13T12:09:05.539Z,35.21
2019-01-13T12:10:16.253Z,35.11
2019-01-13T12:11:25.680Z,35.02
2019-01-13T12:12:34.866Z,35.02
2019-01-13T12:13:44.054Z,35.21
2019-01-13T12:14:53.261Z,35.11
2019-01-13T12:16:02.211Z,35.21
2019-01-13T12:17:11.406Z,35.21
2019-01-13T12:18:20.876Z,35.11
2019-01-13T12:19:30.068Z,34.92
2019-01-13T12:20:39.760Z,35.21
2019-01-13T12:21:48.450Z,35.11
2019-01-13T12:22:58.657Z,35.11
2019-01-13T12:24:08.362Z,35.02
2019-01-13T12:25:17.537Z,34.94
2019-01-13T12:26:27.009Z,35.22
2019-01-13T12:27:35.962Z,35.03
2019-01-13T12:28:45.643Z,35.13
2019-01-13T12:29:55.086Z,35.13
2019-01-13T12:31:04.315Z,35.03
2019-01-13T12:32:13.576Z,35.13
2019-01-13T12:33:26.883Z,35.13
2019-01-13T12:34:35.806Z,35.22
2019-01-13T12:35:45.245Z,35.13
2019-01-13T12:36:54.441Z,35.22
2019-01-13T12:38:03.648Z,35.22
2019-01-13T12:39:13.346Z,35.22
2019-01-13T12:40:22.371Z,35.13
2019-01-13T12:41:32.309Z,35.13
2019-01-13T12:42:41.556Z,35.22
2019-01-13T12:43:51.099Z,35.13
2019-01-13T12:45:00.637Z,35.13
2019-01-13T12:46:09.582Z,35.13
2019-01-13T12:47:18.761Z,35.22
2019-01-13T12:48:28.250Z,35.24
2019-01-13T12:49:37.306Z,35.24
2019-01-13T12:50:46.493Z,35.14
2019-01-13T12:51:55.713Z,35.22
2019-01-13T12:53:04.901Z,35.34
2019-01-13T12:54:14.351Z,35.14
2019-01-13T12:55:23.289Z,35.14
2019-01-13T12:56:32.257Z,35.34
2019-01-13T12:57:41.685Z,35.24
2019-01-13T12:58:52.073Z,35.24
2019-01-13T13:00:01.513Z,35.24
2019-01-13T13:01:11.449Z,35.14
2019-01-13T13:02:20.869Z,35.24
2019-01-13T13:03:34.373Z,35.34
2019-01-13T13:04:43.807Z,35.24
2019-01-13T13:05:53.175Z,35.34
2019-01-13T13:07:02.138Z,35.24
2019-01-13T13:08:11.639Z,34.86
2019-01-13T13:09:21.069Z,34.86
2019-01-13T13:10:30.547Z,34.97
2019-01-13T13:11:40.017Z,34.86
2019-01-13T13:12:49.222Z,34.86
2019-01-13T13:13:58.405Z,34.86
2019-01-13T13:15:07.851Z,34.86
2019-01-13T13:16:17.297Z,35.26
2019-01-13T13:17:26.726Z,35.16
2019-01-13T13:18:36.453Z,35.26
2019-01-13T13:19:45.900Z,35.14
2019-01-13T13:20:55.337Z,35.14
2019-01-13T13:22:04.509Z,35.05
2019-01-13T13:23:13.710Z,35.05
2019-01-13T13:24:23.130Z,35.24
2019-01-13T13:25:34.509Z,35.34
2019-01-13T13:26:43.692Z,35.05
2019-01-13T13:27:53.134Z,35.44
2019-01-13T13:29:02.355Z,35.24
2019-01-13T13:30:11.296Z,35.24
2019-01-13T13:31:20.221Z,35.44
2019-01-13T13:32:29.388Z,35.44
2019-01-13T13:33:41.396Z,35.44
2019-01-13T13:34:50.109Z,35.53
2019-01-13T13:36:00.574Z,35.44
2019-01-13T13:37:10.011Z,35.53
2019-01-13T13:38:19.177Z,35.72
2019-01-13T13:39:28.372Z,35.63
2019-01-13T13:40:37.801Z,35.61
2019-01-13T13:41:47.089Z,35.72
2019-01-13T13:42:56.220Z,35.63
2019-01-13T13:44:05.655Z,35.63
2019-01-13T13:45:14.848Z,35.53
2019-01-13T13:46:24.271Z,35.63
2019-01-13T13:47:33.440Z,35.53
2019-01-13T13:48:42.874Z,35.44
2019-01-13T13:49:52.065Z,35.63
2019-01-13T13:51:01.243Z,35.53
2019-01-13T13:52:10.430Z,35.53
2019-01-13T13:53:19.615Z,35.53
2019-01-13T13:54:28.540Z,35.44
2019-01-13T13:55:37.971Z,35.24
2019-01-13T13:56:46.650Z,35.34
2019-01-13T13:57:55.586Z,35.34
2019-01-13T13:59:04.773Z,35.24
2019-01-13T14:00:13.729Z,35.24
2019-01-13T14:01:22.902Z,35.34
2019-01-13T14:02:32.335Z,35.24
2019-01-13T14:03:48.380Z,35.24
2019-01-13T14:04:57.967Z,35.34
2019-01-13T14:06:08.163Z,35.34
2019-01-13T14:07:19.023Z,35.44
2019-01-13T14:08:28.443Z,35.05
2019-01-13T14:09:38.392Z,35.26
2019-01-13T14:11:02.549Z,35.16
2019-01-13T14:12:13.122Z,35.06
2019-01-13T14:13:22.907Z,35.16
2019-01-13T14:14:32.317Z,35.06
2019-01-13T14:15:42.087Z,35.16
2019-01-13T14:16:51.964Z,35.16
2019-01-13T14:18:01.984Z,35.16
2019-01-13T14:19:12.092Z,35.16
2019-01-13T14:20:22.612Z,35.16
2019-01-13T14:21:33.088Z,35.06
2019-01-13T14:22:42.939Z,35.16
2019-01-13T14:23:52.385Z,35.16
2019-01-13T14:25:02.063Z,35.16
2019-01-13T14:26:12.113Z,35.06
2019-01-13T14:27:22.037Z,35.26
2019-01-13T14:28:32.156Z,35.16
2019-01-13T14:29:42.101Z,35.16
2019-01-13T14:30:51.162Z,35.36
2019-01-13T14:32:01.460Z,35.16
2019-01-13T14:33:11.119Z,35.26
2019-01-13T14:34:20.917Z,35.28
2019-01-13T14:35:30.699Z,35.06
2019-01-13T14:36:39.725Z,35.18
2019-01-13T14:37:49.766Z,35.28
2019-01-13T14:38:59.030Z,35.36
2019-01-13T14:40:09.102Z,35.28
2019-01-13T14:41:18.132Z,35.18
2019-01-13T14:42:28.076Z,35.28
2019-01-13T14:43:37.920Z,35.08
2019-01-13T14:44:47.377Z,35.08
2019-01-13T14:45:57.489Z,35.16
2019-01-13T14:47:07.606Z,35.18
2019-01-13T14:48:17.221Z,35.28
2019-01-13T14:49:27.067Z,35.28
2019-01-13T14:50:36.969Z,35.28
2019-01-13T14:51:47.790Z,35.28
2019-01-13T14:52:57.642Z,35.18
2019-01-13T14:54:08.791Z,35.28
2019-01-13T14:55:18.037Z,35.18
2019-01-13T14:56:27.862Z,35.08
2019-01-13T14:57:37.719Z,35.08